Home

PKWA Terminal Aerodrome Forecast (TAF)small logo


TAF provided by NWS Guam
2014/04/24 18:26
TAF PKWA 241720Z 2418/2518 07016KT P6SM VCSH FEW018 SCT140

      



Site Map | Contact Us | Copyright © 2007 Atmospheric Technology Services Company. All rights reserved.